Time;durP1;ratioP1;P1;durP2;ratioP2;P2;SDS_P1;SDS_P2;PMS_P1;PMS_P2;Temp;Humidity;BMP_temperature;BMP_pressure;BME280_temperature;BME280_humidity;BME280_pressure;Samples;Min_cycle;Max_cycle;Signal;HPM_P1;HPM_P2
2022/05/14 00:00:40;;;;;;;31.00;7.70;;;;;;;;;;4348279;33;20411;-71
2022/05/14 00:03:05;;;;;;;25.90;7.95;;;;;;;;;;4325720;32;20127;-72
2022/05/14 00:05:30;;;;;;;18.75;5.57;;;;;;;;;;4337725;33;20055;-72
2022/05/14 00:07:56;;;;;;;;;;;;;;;;;;4334323;33;20437;-71
2022/05/14 00:10:22;;;;;;;25.20;6.05;;;;;;;;;;4333839;33;20302;-72
2022/05/14 00:13:06;;;;;;;23.12;6.32;;;;;;;;;;4331846;33;20039;-71
2022/05/14 00:15:38;;;;;;;23.80;6.90;;;;;;;;;;4327359;33;20048;-71
2022/05/14 00:18:04;;;;;;;26.30;6.53;;;;;;;;;;4330258;33;20058;-71
2022/05/14 00:20:31;;;;;;;20.12;5.62;;;;;;;;;;4332707;33;20064;-72
2022/05/14 00:22:56;;;;;;;24.27;7.60;;;;;;;;;;4317354;33;20041;-74
2022/05/14 00:25:21;;;;;;;28.85;5.95;;;;;;;;;;4324615;33;20062;-72
2022/05/14 00:27:46;;;;;;;;;;;;;;;;;;4332740;33;20083;-71
2022/05/14 00:30:13;;;;;;;30.02;6.30;;;;;;;;;;4332991;33;19965;-71
2022/05/14 00:32:38;;;;;;;26.98;6.43;;;;;;;;;;4320744;33;20040;-72
2022/05/14 00:35:04;;;;;;;27.20;8.15;;;;;;;;;;4315445;33;20040;-71
2022/05/14 00:37:29;;;;;;;24.05;6.87;;;;;;;;;;4328101;33;20178;-73
2022/05/14 00:39:54;;;;;;;;;;;;;;;;;;4380033;27;20043;-74
2022/05/14 00:42:20;;;;;;;20.45;6.97;;;;;;;;;;4362767;32;20325;-76
2022/05/14 00:44:45;;;;;;;23.02;5.82;;;;;;;;;;4361773;32;20092;-75
2022/05/14 00:47:11;;;;;;;;;;;;;;;;;;4382036;32;20036;-76
2022/05/14 00:49:36;;;;;;;12.23;5.82;;;;;;;;;;4372443;32;19954;-74
2022/05/14 00:52:02;;;;;;;25.62;6.95;;;;;;;;;;4365531;32;20055;-76
2022/05/14 00:54:30;;;;;;;28.48;6.90;;;;;;;;;;4371811;32;20132;-77
2022/05/14 00:56:58;;;;;;;28.60;6.43;;;;;;;;;;4385480;32;20079;-75
2022/05/14 00:59:25;;;;;;;25.25;6.12;;;;;;;;;;4371875;32;20102;-75
2022/05/14 01:01:50;;;;;;;26.25;7.18;;;;;;;;;;4376499;32;20061;-76
2022/05/14 01:04:16;;;;;;;29.05;7.85;;;;;;;;;;4362636;32;20039;-76
2022/05/14 01:06:41;;;;;;;;;;;;;;;;;;4362311;32;20027;-77
2022/05/14 01:09:07;;;;;;;29.12;7.70;;;;;;;;;;4364685;32;19981;-76
2022/05/14 01:11:32;;;;;;;;;;;;;;;;;;4375302;32;20146;-75
2022/05/14 01:13:57;;;;;;;30.73;8.25;;;;;;;;;;4366043;32;19955;-73
2022/05/14 01:16:22;;;;;;;34.05;8.45;;;;;;;;;;4362321;32;20051;-72
2022/05/14 01:18:49;;;;;;;26.42;8.25;;;;;;;;;;4372651;32;20085;-76
2022/05/14 01:21:23;;;;;;;22.42;8.73;;;;;;;;;;4367732;32;20035;-77
2022/05/14 01:26:35;;;;;;;29.65;8.45;;;;;;;;;;4361228;32;20049;-77
2022/05/14 01:29:15;;;;;;;28.50;8.32;;;;;;;;;;4360462;32;20019;-76
2022/05/14 01:31:41;;;;;;;32.67;9.07;;;;;;;;;;4363415;32;20058;-76
2022/05/14 01:34:08;;;;;;;32.78;8.90;;;;;;;;;;4360287;32;20059;-74
2022/05/14 01:36:33;;;;;;;32.58;8.93;;;;;;;;;;4361572;32;20069;-73
2022/05/14 01:38:59;;;;;;;35.25;10.75;;;;;;;;;;4360232;32;20059;-73
2022/05/14 01:41:24;;;;;;;;;;;;;;;;;;4369839;32;20027;-76
2022/05/14 01:43:49;;;;;;;34.00;9.50;;;;;;;;;;4386272;32;19956;-71
2022/05/14 01:46:15;;;;;;;47.38;10.98;;;;;;;;;;4365491;32;20364;-76
2022/05/14 01:48:40;;;;;;;37.42;10.00;;;;;;;;;;4358938;32;20380;-75
2022/05/14 01:51:05;;;;;;;;;;;;;;;;;;4368451;32;20022;-74
2022/05/14 01:53:30;;;;;;;28.62;11.27;;;;;;;;;;4371798;32;20301;-73
2022/05/14 01:55:55;;;;;;;;;;;;;;;;;;4361442;32;20031;-75
2022/05/14 01:58:39;;;;;;;38.42;11.15;;;;;;;;;;4367131;32;19977;-77
2022/05/14 02:01:15;;;;;;;29.05;9.63;;;;;;;;;;4345529;32;20181;-75
2022/05/14 02:03:41;;;;;;;42.38;10.18;;;;;;;;;;4364647;32;20053;-74
2022/05/14 02:06:06;;;;;;;31.23;10.07;;;;;;;;;;4381936;32;20042;-71
2022/05/14 02:08:31;;;;;;;38.10;10.27;;;;;;;;;;4361186;32;20030;-73
2022/05/14 02:10:57;;;;;;;;;;;;;;;;;;4372781;32;20183;-76
2022/05/14 02:13:26;;;;;;;46.95;11.18;;;;;;;;;;4367140;32;19949;-76
2022/05/14 02:15:57;;;;;;;29.05;9.88;;;;;;;;;;4369294;32;20031;-77
2022/05/14 02:18:26;;;;;;;28.02;10.18;;;;;;;;;;4378317;32;20353;-76
2022/05/14 02:20:51;;;;;;;29.27;10.57;;;;;;;;;;4369842;32;20077;-75
2022/05/14 02:23:17;;;;;;;37.10;11.95;;;;;;;;;;4362996;32;20032;-77
2022/05/14 02:25:42;;;;;;;;;;;;;;;;;;4363080;32;20027;-77
2022/05/14 02:28:07;;;;;;;41.42;11.25;;;;;;;;;;4369077;32;20012;-77
2022/05/14 02:30:33;;;;;;;;;;;;;;;;;;4377292;32;20054;-77
2022/05/14 02:32:58;;;;;;;39.25;14.85;;;;;;;;;;4373409;32;19953;-77
2022/05/14 02:35:23;;;;;;;;;;;;;;;;;;4379454;32;20122;-75
2022/05/14 02:37:49;;;;;;;36.78;15.57;;;;;;;;;;4364314;32;19939;-77
2022/05/14 02:40:14;;;;;;;;;;;;;;;;;;4363815;32;20040;-76
2022/05/14 02:42:39;;;;;;;33.50;14.68;;;;;;;;;;4368472;32;19957;-77
2022/05/14 02:45:04;;;;;;;;;;;;;;;;;;4378687;32;20053;-76
2022/05/14 02:47:30;;;;;;;37.75;16.05;;;;;;;;;;4374089;32;19935;-77
2022/05/14 02:49:56;;;;;;;46.20;16.45;;;;;;;;;;4377703;32;20114;-77
2022/05/14 02:52:21;;;;;;;;;;;;;;;;;;4368758;32;20076;-76
2022/05/14 02:54:53;;;;;;;42.62;16.98;;;;;;;;;;4364041;32;19934;-76
2022/05/14 02:57:19;;;;;;;50.35;17.95;;;;;;;;;;4361736;32;20077;-76
2022/05/14 02:59:44;;;;;;;57.13;19.00;;;;;;;;;;4362792;32;20366;-75
2022/05/14 03:02:09;;;;;;;40.30;17.58;;;;;;;;;;4362169;32;20396;-75
2022/05/14 03:04:38;;;;;;;52.60;18.55;;;;;;;;;;4362271;32;20345;-76
2022/05/14 03:07:08;;;;;;;52.40;18.45;;;;;;;;;;4369487;32;20465;-76
2022/05/14 03:09:34;;;;;;;49.20;20.08;;;;;;;;;;4378313;32;20348;-76
2022/05/14 03:11:59;;;;;;;42.20;19.50;;;;;;;;;;4363686;32;20030;-76
2022/05/14 03:14:25;;;;;;;60.40;19.62;;;;;;;;;;4378164;32;20096;-76
2022/05/14 03:16:50;;;;;;;;;;;;;;;;;;4378069;32;20443;-76
2022/05/14 03:19:16;;;;;;;46.78;17.52;;;;;;;;;;4366158;32;19938;-76
2022/05/14 03:21:41;;;;;;;;;;;;;;;;;;4367112;32;20123;-76
2022/05/14 03:24:06;;;;;;;43.47;18.62;;;;;;;;;;4362462;32;19986;-76
2022/05/14 03:26:32;;;;;;;;;;;;;;;;;;4363063;32;20160;-76
2022/05/14 03:28:57;;;;;;;46.13;19.02;;;;;;;;;;4376586;32;19995;-77
2022/05/14 03:31:22;;;;;;;43.60;19.20;;;;;;;;;;4360095;32;20054;-77
2022/05/14 03:33:47;;;;;;;;;;;;;;;;;;4364507;32;20086;-76
2022/05/14 03:36:13;;;;;;;50.60;17.60;;;;;;;;;;4362759;32;19990;-76
2022/05/14 03:38:38;;;;;;;;;;;;;;;;;;4367816;32;20131;-76
2022/05/14 03:41:04;;;;;;;44.72;17.90;;;;;;;;;;4378899;32;19957;-76
2022/05/14 03:43:30;;;;;;;;;;;;;;;;;;4376982;32;20051;-76
2022/05/14 03:45:55;;;;;;;43.65;16.40;;;;;;;;;;4374644;32;20483;-75
2022/05/14 03:48:20;;;;;;;45.78;16.27;;;;;;;;;;4362843;32;20027;-76
2022/05/14 03:50:46;;;;;;;49.58;17.67;;;;;;;;;;4361740;32;20114;-76
2022/05/14 03:53:11;;;;;;;;;;;;;;;;;;4373991;32;20094;-76
2022/05/14 03:55:36;;;;;;;55.60;16.65;;;;;;;;;;4378725;32;19948;-76
2022/05/14 03:58:01;;;;;;;;;;;;;;;;;;4365940;32;20518;-75
2022/05/14 04:00:26;;;;;;;42.45;15.65;;;;;;;;;;4361833;32;19997;-76
2022/05/14 04:02:51;;;;;;;;;;;;;;;;;;4374614;32;20512;-76
2022/05/14 04:05:16;;;;;;;53.70;17.95;;;;;;;;;;4376392;32;19993;-75
2022/05/14 04:07:43;;;;;;;;;;;;;;;;;;4366752;32;20419;-76
2022/05/14 04:10:09;;;;;;;48.75;18.50;;;;;;;;;;4361776;32;19965;-76
2022/05/14 04:12:35;;;;;;;47.65;16.73;;;;;;;;;;4362444;32;20035;-76
2022/05/14 04:15:00;;;;;;;44.65;15.32;;;;;;;;;;4362904;32;20023;-77
2022/05/14 04:17:25;;;;;;;;;;;;;;;;;;4372734;32;20368;-75
2022/05/14 04:19:50;;;;;;;40.58;15.05;;;;;;;;;;4368496;32;19954;-74
2022/05/14 04:22:16;;;;;;;;;;;;;;;;;;4377675;32;20130;-76
2022/05/14 04:24:41;;;;;;;43.00;16.55;;;;;;;;;;4363089;32;20391;-76
2022/05/14 04:27:06;;;;;;;;;;;;;;;;;;4361797;32;20024;-75
2022/05/14 04:29:31;;;;;;;55.85;17.55;;;;;;;;;;4373444;32;20022;-75
2022/05/14 04:31:56;;;;;;;;;;;;;;;;;;4361793;32;20054;-76
2022/05/14 04:34:22;;;;;;;49.90;14.98;;;;;;;;;;4372219;32;19969;-75
2022/05/14 04:36:47;;;;;;;43.30;14.85;;;;;;;;;;4362166;32;20034;-75
2022/05/14 04:39:12;;;;;;;46.70;17.95;;;;;;;;;;4360188;32;20396;-75
2022/05/14 04:41:37;;;;;;;;;;;;;;;;;;4365980;32;20074;-75
2022/05/14 04:44:03;;;;;;;40.05;15.75;;;;;;;;;;4366294;32;20000;-75
2022/05/14 04:46:28;;;;;;;;;;;;;;;;;;4367174;32;20398;-76
2022/05/14 04:48:53;;;;;;;34.97;12.65;;;;;;;;;;4361309;32;20371;-77
2022/05/14 04:51:19;;;;;;;33.67;13.77;;;;;;;;;;4361192;32;20409;-78
2022/05/14 04:53:44;;;;;;;;;;;;;;;;;;4371097;32;20054;-77
2022/05/14 04:56:09;;;;;;;44.42;11.85;;;;;;;;;;4386725;32;19942;-77
2022/05/14 04:58:35;;;;;;;31.48;13.48;;;;;;;;;;4371260;32;20373;-75
2022/05/14 05:01:00;;;;;;;;;;;;;;;;;;4360853;32;20027;-77
2022/05/14 05:03:27;;;;;;;34.33;10.85;;;;;;;;;;4361056;32;19938;-75
2022/05/14 05:05:54;;;;;;;30.83;13.30;;;;;;;;;;4360590;32;20521;-76
2022/05/14 05:08:20;;;;;;;31.12;11.55;;;;;;;;;;4362550;32;20031;-74
2022/05/14 05:10:46;;;;;;;33.10;11.45;;;;;;;;;;4360657;32;20060;-75
2022/05/14 05:13:12;;;;;;;31.98;11.40;;;;;;;;;;4369089;32;20042;-73
2022/05/14 05:15:37;;;;;;;34.97;11.93;;;;;;;;;;4362385;32;20460;-75
2022/05/14 05:18:06;;;;;;;28.60;11.00;;;;;;;;;;4369341;32;20027;-76
2022/05/14 05:20:32;;;;;;;33.78;10.93;;;;;;;;;;4365622;32;20106;-75
2022/05/14 05:22:57;;;;;;;33.90;9.68;;;;;;;;;;4361455;32;20039;-72
2022/05/14 05:25:23;;;;;;;38.80;11.73;;;;;;;;;;4361589;32;20046;-76
2022/05/14 05:27:48;;;;;;;;;;;;;;;;;;4359390;32;20444;-75
2022/05/14 05:30:13;;;;;;;40.33;10.73;;;;;;;;;;4364940;32;20288;-73
2022/05/14 05:32:38;;;;;;;33.22;10.73;;;;;;;;;;4359247;32;20023;-73
2022/05/14 05:35:04;;;;;;;30.75;10.73;;;;;;;;;;4374325;32;20046;-74
2022/05/14 05:37:29;;;;;;;38.53;11.65;;;;;;;;;;4360214;32;20036;-74
2022/05/14 05:39:55;;;;;;;39.70;10.80;;;;;;;;;;4359996;32;20057;-76
2022/05/14 05:42:20;;;;;;;28.27;10.38;;;;;;;;;;4361458;32;20053;-76
2022/05/14 05:44:45;;;;;;;28.95;9.63;;;;;;;;;;4367615;32;20031;-73
2022/05/14 05:47:10;;;;;;;;;;;;;;;;;;4365402;32;20027;-70
2022/05/14 05:49:39;;;;;;;32.78;11.07;;;;;;;;;;4360106;32;20327;-75
2022/05/14 05:52:04;;;;;;;37.75;9.73;;;;;;;;;;4361094;32;20039;-73
2022/05/14 05:57:13;;;;;;;29.00;10.15;;;;;;;;;;4363398;32;20049;-71
2022/05/14 05:59:38;;;;;;;28.27;11.30;;;;;;;;;;4368028;32;20086;-69
2022/05/14 06:02:04;;;;;;;;;;;;;;;;;;4387941;32;20222;-73
2022/05/14 06:04:29;;;;;;;29.98;8.98;;;;;;;;;;4383345;32;19949;-71
2022/05/14 06:06:54;;;;;;;;;;;;;;;;;;4375326;32;20018;-73
2022/05/14 06:09:21;;;;;;;29.90;10.10;;;;;;;;;;4374476;32;19952;-70
2022/05/14 06:11:46;;;;;;;24.70;9.27;;;;;;;;;;4369797;32;20315;-70
2022/05/14 06:14:12;;;;;;;33.70;11.43;;;;;;;;;;4358107;32;20058;-73
2022/05/14 06:16:38;;;;;;;28.25;9.60;;;;;;;;;;4359856;32;20024;-75
2022/05/14 06:19:03;;;;;;;24.70;10.23;;;;;;;;;;4364279;32;20027;-73
2022/05/14 06:21:28;;;;;;;;;;;;;;;;;;4373227;32;20089;-72
2022/05/14 06:23:54;;;;;;;26.12;9.38;;;;;;;;;;4367580;32;19934;-69
2022/05/14 06:26:19;;;;;;;24.77;8.50;;;;;;;;;;4359947;32;20339;-73
2022/05/14 06:28:44;;;;;;;26.33;9.82;;;;;;;;;;4366340;32;20100;-71
2022/05/14 06:31:09;;;;;;;23.23;8.40;;;;;;;;;;4361422;32;20038;-75
2022/05/14 06:33:34;;;;;;;22.65;9.15;;;;;;;;;;4359836;32;20094;-72
2022/05/14 06:36:00;;;;;;;23.98;8.52;;;;;;;;;;4359995;32;20043;-73
2022/05/14 06:38:26;;;;;;;33.60;10.57;;;;;;;;;;4367528;32;20039;-73
2022/05/14 06:40:52;;;;;;;24.27;7.97;;;;;;;;;;4357474;32;20429;-72
2022/05/14 06:43:17;;;;;;;29.95;8.88;;;;;;;;;;4359393;32;20074;-76
2022/05/14 06:45:43;;;;;;;;;;;;;;;;;;4360115;32;20027;-76
2022/05/14 06:48:08;;;;;;;28.05;8.10;;;;;;;;;;4371115;32;19989;-70
2022/05/14 06:50:35;;;;;;;27.92;9.00;;;;;;;;;;4360636;32;20027;-69
2022/05/14 06:53:02;;;;;;;21.90;7.95;;;;;;;;;;4371776;32;20053;-73
2022/05/14 06:55:30;;;;;;;25.50;8.30;;;;;;;;;;4365307;32;20057;-75
2022/05/14 06:57:55;;;;;;;30.62;8.43;;;;;;;;;;4358493;32;20059;-74
2022/05/14 07:00:22;;;;;;;24.15;7.45;;;;;;;;;;4365326;32;20053;-69
2022/05/14 07:02:48;;;;;;;27.05;9.13;;;;;;;;;;4360427;32;20074;-75
2022/05/14 07:07:58;;;;;;;27.67;9.65;;;;;;;;;;4361650;32;20081;-74
2022/05/14 07:10:23;;;;;;;22.62;7.57;;;;;;;;;;4361651;32;20036;-72
2022/05/14 07:12:49;;;;;;;26.90;8.27;;;;;;;;;;4369053;32;20020;-73
2022/05/14 07:15:14;;;;;;;34.00;8.40;;;;;;;;;;4362683;32;20056;-72
2022/05/14 07:17:39;;;;;;;24.42;8.43;;;;;;;;;;4379893;32;20027;-74
2022/05/14 07:20:05;;;;;;;23.92;7.78;;;;;;;;;;4361931;32;20406;-75
2022/05/14 07:22:30;;;;;;;25.20;7.95;;;;;;;;;;4363679;32;20405;-74
2022/05/14 07:24:55;;;;;;;26.37;7.07;;;;;;;;;;4366812;32;20058;-73
2022/05/14 07:27:21;;;;;;;23.58;7.82;;;;;;;;;;4363450;32;20023;-74
2022/05/14 07:29:46;;;;;;;23.38;7.57;;;;;;;;;;4362491;32;20027;-76
2022/05/14 07:32:12;;;;;;;21.70;7.78;;;;;;;;;;4372820;32;20045;-75
2022/05/14 07:34:38;;;;;;;31.40;9.93;;;;;;;;;;4375579;32;20028;-72
2022/05/14 07:37:06;;;;;;;19.48;7.10;;;;;;;;;;4358358;32;20430;-74
2022/05/14 07:39:33;;;;;;;22.60;6.95;;;;;;;;;;4373006;32;20034;-72
2022/05/14 07:41:59;;;;;;;27.75;7.62;;;;;;;;;;4358211;32;20440;-74
2022/05/14 07:44:28;;;;;;;23.73;7.05;;;;;;;;;;4358454;32;20031;-74
2022/05/14 07:46:53;;;;;;;24.63;7.22;;;;;;;;;;4361449;32;20196;-76
2022/05/14 07:49:21;;;;;;;27.50;7.70;;;;;;;;;;4359359;32;20043;-76
2022/05/14 07:51:46;;;;;;;21.23;6.05;;;;;;;;;;4358662;32;20500;-75
2022/05/14 07:54:11;;;;;;;29.42;6.30;;;;;;;;;;4374489;32;20047;-76
2022/05/14 07:56:38;;;;;;;18.95;5.35;;;;;;;;;;4371792;32;20402;-77
2022/05/14 07:59:03;;;;;;;24.08;6.05;;;;;;;;;;4365011;32;20039;-76
2022/05/14 08:01:29;;;;;;;19.77;5.93;;;;;;;;;;4370920;32;20053;-77
2022/05/14 08:03:54;;;;;;;16.37;5.30;;;;;;;;;;4372517;32;20381;-75
2022/05/14 08:06:19;;;;;;;19.60;5.07;;;;;;;;;;4361412;32;20405;-77
2022/05/14 08:08:45;;;;;;;21.60;5.50;;;;;;;;;;4361514;32;20058;-74
2022/05/14 08:11:11;;;;;;;22.58;6.68;;;;;;;;;;4361386;32;20434;-70
2022/05/14 08:13:36;;;;;;;17.08;3.90;;;;;;;;;;4360638;32;20070;-74
2022/05/14 08:16:02;;;;;;;23.42;5.70;;;;;;;;;;4360814;32;20395;-76
2022/05/14 08:18:28;;;;;;;18.58;5.12;;;;;;;;;;4364756;32;20054;-74
2022/05/14 08:20:54;;;;;;;18.70;5.15;;;;;;;;;;4369305;32;20027;-76
2022/05/14 08:26:03;;;;;;;22.48;5.78;;;;;;;;;;4361699;32;20142;-73
2022/05/14 08:28:29;;;;;;;23.35;6.12;;;;;;;;;;4360929;32;20062;-77
2022/05/14 08:30:54;;;;;;;22.65;5.87;;;;;;;;;;4359388;32;20050;-75
2022/05/14 08:33:20;;;;;;;22.35;6.30;;;;;;;;;;4360890;32;20028;-77
2022/05/14 08:35:46;;;;;;;19.65;5.60;;;;;;;;;;4359805;32;20364;-76
2022/05/14 08:38:12;;;;;;;29.10;7.10;;;;;;;;;;4360898;32;20023;-74
2022/05/14 08:40:52;;;;;;;20.95;6.45;;;;;;;;;;4363107;32;20118;-76
2022/05/14 08:43:22;;;;;;;19.00;5.57;;;;;;;;;;4363060;32;20058;-76
2022/05/14 08:45:47;;;;;;;18.73;5.20;;;;;;;;;;4361197;32;20031;-80
2022/05/14 08:48:14;;;;;;;25.55;4.62;;;;;;;;;;4367169;32;20088;-73
2022/05/14 08:50:40;;;;;;;23.65;5.53;;;;;;;;;;4367329;32;20038;-76
2022/05/14 08:53:07;;;;;;;20.08;5.62;;;;;;;;;;4360805;32;20401;-76
2022/05/14 08:55:54;;;;;;;21.55;5.80;;;;;;;;;;4364497;32;20412;-72
2022/05/14 08:58:46;;;;;;;19.20;5.18;;;;;;;;;;4361416;32;20047;-75
2022/05/14 09:01:14;;;;;;;23.90;5.87;;;;;;;;;;4359534;32;20399;-75
2022/05/14 09:03:43;;;;;;;22.62;6.05;;;;;;;;;;4365991;32;20030;-75
2022/05/14 09:06:08;;;;;;;15.63;4.12;;;;;;;;;;4367636;32;20027;-73
2022/05/14 09:08:33;;;;;;;24.25;4.68;;;;;;;;;;4360999;32;20395;-75
2022/05/14 09:11:00;;;;;;;21.70;6.50;;;;;;;;;;4359463;32;20311;-75
2022/05/14 09:13:27;;;;;;;16.02;4.53;;;;;;;;;;4360410;32;20081;-76
2022/05/14 09:15:59;;;;;;;21.73;6.22;;;;;;;;;;4360373;32;20031;-72
2022/05/14 09:18:28;;;;;;;19.65;5.40;;;;;;;;;;4360070;32;20023;-75
2022/05/14 09:21:04;;;;;;;18.55;5.57;;;;;;;;;;4360493;32;20058;-74
2022/05/14 09:23:29;;;;;;;;;;;;;;;;;;4361150;32;20039;-72
2022/05/14 09:25:55;;;;;;;20.65;4.93;;;;;;;;;;4360086;33;19954;-75
2022/05/14 09:28:37;;;;;;;20.10;5.25;;;;;;;;;;4361085;32;20304;-75
2022/05/14 09:31:02;;;;;;;21.12;6.05;;;;;;;;;;4360837;32;20062;-79
2022/05/14 09:33:34;;;;;;;17.33;6.18;;;;;;;;;;4359510;32;20423;-75
2022/05/14 09:36:00;;;;;;;24.15;5.93;;;;;;;;;;4362192;32;20036;-78
2022/05/14 09:38:26;;;;;;;22.45;5.62;;;;;;;;;;4356174;32;20054;-75
2022/05/14 09:40:53;;;;;;;20.27;5.35;;;;;;;;;;4361071;32;20094;-73
2022/05/14 09:43:18;;;;;;;20.73;5.65;;;;;;;;;;4360622;32;20039;-76
2022/05/14 09:46:04;;;;;;;25.80;5.32;;;;;;;;;;4361145;32;20410;-73
2022/05/14 09:48:31;;;;;;;22.52;5.82;;;;;;;;;;4360623;32;20463;-75
2022/05/14 09:50:58;;;;;;;23.48;5.12;;;;;;;;;;4361182;32;20027;-74
2022/05/14 09:53:30;;;;;;;26.42;5.47;;;;;;;;;;4359753;32;20076;-77
2022/05/14 09:56:03;;;;;;;26.50;6.05;;;;;;;;;;4371687;32;20031;-76
2022/05/14 09:58:38;;;;;;;22.40;5.53;;;;;;;;;;4360407;32;20062;-77
2022/05/14 10:01:07;;;;;;;13.52;4.75;;;;;;;;;;4360526;32;20023;-77
2022/05/14 10:03:55;;;;;;;18.50;5.22;;;;;;;;;;4354830;32;20085;-75
2022/05/14 10:06:38;;;;;;;18.52;5.50;;;;;;;;;;4345534;33;20023;-75
2022/05/14 10:09:13;;;;;;;26.12;6.80;;;;;;;;;;4352214;33;20031;-75
2022/05/14 10:11:44;;;;;;;20.75;5.55;;;;;;;;;;4360330;32;20140;-75
2022/05/14 10:14:15;;;;;;;19.83;5.62;;;;;;;;;;4360427;32;20114;-77
2022/05/14 10:16:47;;;;;;;19.90;4.95;;;;;;;;;;4360984;32;20093;-72
2022/05/14 10:19:12;;;;;;;17.55;4.87;;;;;;;;;;4360928;32;20054;-75
2022/05/14 10:21:44;;;;;;;14.73;5.87;;;;;;;;;;4358805;32;20035;-77
2022/05/14 10:27:02;;;;;;;21.65;4.95;;;;;;;;;;4359875;33;20456;-76
2022/05/14 10:29:45;;;;;;;23.83;5.37;;;;;;;;;;4359909;32;20078;-74
2022/05/14 10:32:15;;;;;;;23.08;6.75;;;;;;;;;;4360564;32;20606;-72
2022/05/14 10:34:53;;;;;;;17.62;4.85;;;;;;;;;;4359874;32;20030;-77
2022/05/14 10:37:28;;;;;;;20.98;5.72;;;;;;;;;;4358488;32;20096;-74
2022/05/14 10:40:08;;;;;;;26.95;5.80;;;;;;;;;;4348093;32;20048;-76
2022/05/14 10:42:33;;;;;;;17.80;5.20;;;;;;;;;;4346473;33;20028;-76
2022/05/14 10:45:07;;;;;;;18.70;5.87;;;;;;;;;;4347792;32;20042;-75
2022/05/14 10:47:33;;;;;;;19.70;5.37;;;;;;;;;;4348406;32;20330;-76
2022/05/14 10:50:06;;;;;;;15.45;5.12;;;;;;;;;;4351600;32;20611;-77
2022/05/14 10:52:31;;;;;;;19.45;4.85;;;;;;;;;;4362698;32;20024;-75
2022/05/14 10:54:57;;;;;;;24.60;5.55;;;;;;;;;;4362856;32;20019;-75
2022/05/14 10:57:26;;;;;;;15.55;5.95;;;;;;;;;;4362684;32;20027;-75
2022/05/14 10:59:57;;;;;;;20.20;5.72;;;;;;;;;;4362997;32;20078;-75
2022/05/14 11:02:31;;;;;;;27.00;5.80;;;;;;;;;;4362727;32;20070;-76
2022/05/14 11:04:57;;;;;;;15.50;5.37;;;;;;;;;;4361092;32;20050;-76
2022/05/14 11:07:39;;;;;;;18.12;5.57;;;;;;;;;;4362013;32;20409;-73
2022/05/14 11:10:20;;;;;;;17.58;6.07;;;;;;;;;;4362292;32;20074;-76
2022/05/14 11:12:52;;;;;;;21.85;6.18;;;;;;;;;;4362673;32;20031;-76
2022/05/14 11:15:21;;;;;;;24.98;6.47;;;;;;;;;;4362520;32;20046;-77
2022/05/14 11:17:46;;;;;;;15.85;5.35;;;;;;;;;;4362011;32;20027;-76
2022/05/14 11:20:13;;;;;;;17.52;5.50;;;;;;;;;;4362015;32;20074;-75
2022/05/14 11:22:43;;;;;;;20.02;5.22;;;;;;;;;;4362084;32;20456;-72
2022/05/14 11:25:20;;;;;;;21.83;5.97;;;;;;;;;;4362983;32;20062;-74
2022/05/14 11:27:57;;;;;;;15.98;5.20;;;;;;;;;;4362989;32;20031;-74
2022/05/14 11:30:44;;;;;;;20.88;6.62;;;;;;;;;;4363005;32;20057;-76
2022/05/14 11:33:21;;;;;;;22.13;6.82;;;;;;;;;;4361854;32;20338;-76
2022/05/14 11:35:48;;;;;;;18.73;5.40;;;;;;;;;;4362735;32;20095;-76
2022/05/14 11:38:25;;;;;;;14.65;4.82;;;;;;;;;;4362022;32;20031;-76
2022/05/14 11:41:08;;;;;;;20.65;5.82;;;;;;;;;;4363044;32;20024;-77
2022/05/14 11:43:34;;;;;;;24.12;5.87;;;;;;;;;;4373231;32;20036;-76
2022/05/14 11:46:10;;;;;;;16.98;6.00;;;;;;;;;;4362391;32;20113;-77
2022/05/14 11:48:45;;;;;;;16.55;5.10;;;;;;;;;;4362301;32;20070;-75
2022/05/14 11:51:24;;;;;;;15.30;5.37;;;;;;;;;;4361644;32;20031;-74
2022/05/14 11:53:53;;;;;;;24.37;7.57;;;;;;;;;;4362321;32;20055;-76
2022/05/14 11:56:23;;;;;;;16.67;5.07;;;;;;;;;;4361332;32;20058;-77
2022/05/14 11:58:55;;;;;;;21.90;5.85;;;;;;;;;;4361136;32;20419;-75
2022/05/14 12:01:24;;;;;;;18.27;5.80;;;;;;;;;;4362168;32;20024;-72
2022/05/14 12:03:50;;;;;;;15.10;4.90;;;;;;;;;;4360516;32;20035;-76
2022/05/14 12:06:34;;;;;;;15.80;5.60;;;;;;;;;;4362868;32;20365;-72
2022/05/14 12:09:18;;;;;;;13.48;4.65;;;;;;;;;;4361379;32;20100;-74
2022/05/14 12:11:52;;;;;;;23.23;4.75;;;;;;;;;;4361015;32;20210;-73
2022/05/14 12:14:22;;;;;;;20.77;4.93;;;;;;;;;;4362925;32;20039;-76
2022/05/14 12:16:48;;;;;;;17.75;5.00;;;;;;;;;;4362089;32;20034;-76
2022/05/14 12:19:18;;;;;;;24.10;5.30;;;;;;;;;;4361484;32;20053;-76
2022/05/14 12:21:49;;;;;;;13.07;5.10;;;;;;;;;;4361142;32;20049;-76
2022/05/14 12:24:22;;;;;;;14.73;4.62;;;;;;;;;;4361989;32;20094;-72
2022/05/14 12:26:48;;;;;;;15.13;4.32;;;;;;;;;;4361845;32;20051;-76
2022/05/14 12:29:20;;;;;;;15.00;4.72;;;;;;;;;;4360800;32;20046;-74
2022/05/14 12:34:34;;;;;;;17.45;5.80;;;;;;;;;;4361477;32;20187;-74
2022/05/14 12:37:10;;;;;;;19.62;4.95;;;;;;;;;;4361802;32;20063;-75
2022/05/14 12:39:35;;;;;;;;;;;;;;;;;;4360379;32;20035;-75
2022/05/14 12:42:02;;;;;;;17.97;4.70;;;;;;;;;;4361557;32;20340;-76
2022/05/14 12:44:29;;;;;;;17.65;5.50;;;;;;;;;;4360767;32;20090;-74
2022/05/14 12:46:56;;;;;;;19.67;5.37;;;;;;;;;;4361172;32;20024;-77
2022/05/14 12:49:33;;;;;;;21.60;6.00;;;;;;;;;;4361110;32;20031;-76
2022/05/14 12:52:04;;;;;;;22.75;6.43;;;;;;;;;;4360752;32;20032;-76
2022/05/14 12:54:31;;;;;;;21.25;5.65;;;;;;;;;;4362177;32;20039;-75
2022/05/14 12:56:58;;;;;;;16.65;5.93;;;;;;;;;;4361591;32;20030;-76
2022/05/14 12:59:28;;;;;;;20.05;5.28;;;;;;;;;;4360071;32;20035;-76
2022/05/14 13:02:00;;;;;;;18.65;5.78;;;;;;;;;;4360266;32;20122;-73
2022/05/14 13:04:48;;;;;;;16.15;6.10;;;;;;;;;;4360810;32;20097;-74
2022/05/14 13:07:14;;;;;;;17.55;4.35;;;;;;;;;;4361260;32;20038;-76
2022/05/14 13:09:40;;;;;;;20.08;5.60;;;;;;;;;;4359854;32;20058;-74
2022/05/14 13:12:06;;;;;;;16.35;5.47;;;;;;;;;;4361468;32;20024;-76
2022/05/14 13:14:33;;;;;;;17.08;5.37;;;;;;;;;;4360738;32;20437;-75
2022/05/14 13:17:06;;;;;;;16.52;4.80;;;;;;;;;;4360839;32;20054;-75
2022/05/14 13:19:35;;;;;;;19.27;5.22;;;;;;;;;;4361194;32;20027;-76
2022/05/14 13:22:01;;;;;;;18.42;5.37;;;;;;;;;;4360585;32;20032;-76
2022/05/14 13:24:28;;;;;;;19.92;5.93;;;;;;;;;;4361563;32;20319;-75
2022/05/14 13:26:55;;;;;;;13.68;4.65;;;;;;;;;;4360591;32;20023;-75
2022/05/14 13:29:26;;;;;;;19.87;5.82;;;;;;;;;;4361078;32;20023;-76
2022/05/14 13:32:02;;;;;;;17.80;5.25;;;;;;;;;;4360485;32;20054;-76
2022/05/14 13:37:34;;;;;;;16.08;5.95;;;;;;;;;;4361966;32;20077;-76
2022/05/14 13:40:02;;;;;;;12.75;4.72;;;;;;;;;;4360675;32;20066;-77
2022/05/14 13:42:39;;;;;;;22.45;4.70;;;;;;;;;;4360681;32;20085;-76
2022/05/14 13:45:07;;;;;;;16.52;5.45;;;;;;;;;;4361884;32;20081;-77
2022/05/14 13:47:33;;;;;;;18.77;5.22;;;;;;;;;;4358540;32;20023;-76
2022/05/14 13:49:59;;;;;;;17.37;4.82;;;;;;;;;;4359280;32;20053;-75
2022/05/14 13:52:29;;;;;;;17.95;5.62;;;;;;;;;;4361357;32;20028;-76
2022/05/14 13:55:03;;;;;;;16.35;5.50;;;;;;;;;;4359579;32;20028;-74
2022/05/14 13:57:28;;;;;;;13.02;4.60;;;;;;;;;;4360389;32;20368;-76
2022/05/14 14:00:10;;;;;;;17.00;4.80;;;;;;;;;;4360124;32;20024;-73
2022/05/14 14:02:36;;;;;;;19.00;5.18;;;;;;;;;;4359421;32;20051;-75
2022/05/14 14:05:05;;;;;;;14.15;5.05;;;;;;;;;;4360489;32;20035;-74
2022/05/14 14:07:32;;;;;;;11.82;4.30;;;;;;;;;;4359657;32;20167;-74
2022/05/14 14:09:57;;;;;;;15.68;5.05;;;;;;;;;;4360325;32;20057;-72
2022/05/14 14:12:25;;;;;;;16.70;5.10;;;;;;;;;;4359897;32;20024;-72
2022/05/14 14:14:50;;;;;;;15.82;5.55;;;;;;;;;;4360033;32;20061;-74
2022/05/14 14:17:16;;;;;;;17.17;4.82;;;;;;;;;;4360148;33;20027;-76
2022/05/14 14:19:41;;;;;;;14.73;4.78;;;;;;;;;;4359590;32;20338;-76
2022/05/14 14:22:08;;;;;;;14.75;5.47;;;;;;;;;;4345489;33;20046;-73
2022/05/14 14:24:34;;;;;;;18.52;5.28;;;;;;;;;;4345093;33;20053;-75
2022/05/14 14:26:59;;;;;;;16.95;5.30;;;;;;;;;;4356345;32;20141;-75
2022/05/14 14:29:25;;;;;;;13.60;4.95;;;;;;;;;;4350461;33;20031;-75
2022/05/14 14:31:50;;;;;;;12.93;4.80;;;;;;;;;;4360121;33;20291;-74
2022/05/14 14:34:15;;;;;;;16.12;5.55;;;;;;;;;;4359360;32;20027;-76
2022/05/14 14:36:41;;;;;;;15.50;4.78;;;;;;;;;;4359257;33;20302;-76
2022/05/14 14:39:07;;;;;;;19.52;5.37;;;;;;;;;;4368017;32;20036;-75
2022/05/14 14:41:33;;;;;;;13.85;4.72;;;;;;;;;;4359783;32;20416;-75
2022/05/14 14:43:58;;;;;;;19.60;5.20;;;;;;;;;;4359259;32;20046;-76
2022/05/14 14:46:26;;;;;;;16.48;5.15;;;;;;;;;;4359363;32;20444;-75
2022/05/14 14:48:53;;;;;;;19.42;5.68;;;;;;;;;;4360268;32;20035;-73
2022/05/14 14:51:24;;;;;;;16.48;5.57;;;;;;;;;;4359696;32;20019;-75
2022/05/14 14:53:49;;;;;;;20.37;6.20;;;;;;;;;;4359573;32;20155;-77
2022/05/14 14:56:14;;;;;;;19.08;5.10;;;;;;;;;;4359417;33;20406;-73
2022/05/14 14:58:42;;;;;;;19.73;5.60;;;;;;;;;;4360908;32;20046;-75
2022/05/14 15:01:09;;;;;;;13.70;4.85;;;;;;;;;;4359052;32;20035;-73
2022/05/14 15:03:39;;;;;;;15.20;4.75;;;;;;;;;;4359565;32;20054;-75